Time;durP1;ratioP1;P1;durP2;ratioP2;P2;SDS_P1;SDS_P2;PMS_P1;PMS_P2;Temp;Humidity;BMP_temperature;BMP_pressure;BME280_temperature;BME280_humidity;BME280_pressure;Samples;Min_cycle;Max_cycle;Signal;HPM_P1;HPM_P2
2022/09/16 00:00:21;;;;;;;19.45;11.27;;;;;;;14.62;60.70;98010.66;4929263;28;20097;-68
2022/09/16 00:02:47;;;;;;;19.00;11.68;;;;;;;14.69;60.34;98013.28;4929030;28;20041;-68
2022/09/16 00:05:13;;;;;;;24.60;12.55;;;;;;;14.56;60.42;97981.38;4960665;28;20038;-67
2022/09/16 00:07:39;;;;;;;20.45;11.82;;;;;;;14.59;60.52;98000.44;4928576;28;20043;-68
2022/09/16 00:10:05;;;;;;;21.80;11.25;;;;;;;14.66;60.28;97997.69;4927995;28;20042;-68
2022/09/16 00:12:33;;;;;;;21.90;11.95;;;;;;;14.65;60.71;97988.06;4929073;28;20069;-70
2022/09/16 00:15:03;;;;;;;19.52;10.98;;;;;;;14.83;60.23;97996.88;4945397;28;20042;-70
2022/09/16 00:17:29;;;;;;;17.92;10.75;;;;;;;14.60;60.46;97969.19;4960589;28;20046;-68
2022/09/16 00:19:56;;;;;;;19.17;10.63;;;;;;;14.89;60.01;97995.97;4944114;28;20046;-68
2022/09/16 00:22:22;;;;;;;15.82;9.93;;;;;;;14.86;59.59;97991.06;4960008;28;20046;-68
2022/09/16 00:24:48;;;;;;;17.80;9.88;;;;;;;15.01;59.00;97993.34;4943748;28;20476;-67
2022/09/16 00:27:14;;;;;;;17.98;9.70;;;;;;;14.85;58.85;97972.59;4928159;28;20116;-68
2022/09/16 00:29:41;;;;;;;15.32;9.38;;;;;;;15.08;58.58;97988.72;4976153;28;20371;-67
2022/09/16 00:32:07;;;;;;;14.82;9.88;;;;;;;14.98;58.66;97994.63;4944104;28;20070;-68
2022/09/16 00:34:33;;;;;;;20.60;10.57;;;;;;;14.89;58.25;98000.50;4944849;28;20054;-68
2022/09/16 00:36:58;;;;;;;19.67;10.02;;;;;;;14.83;58.41;98001.38;4929179;28;20043;-67
2022/09/16 00:39:24;;;;;;;15.32;10.57;;;;;;;14.70;58.66;97999.69;4929370;28;20046;-67
2022/09/16 00:41:50;;;;;;;21.23;9.93;;;;;;;14.77;58.74;98007.63;4945006;28;20046;-68
2022/09/16 00:44:53;;;;;;;16.38;10.35;;;;;;;15.01;58.36;98004.84;4943757;28;20042;-67
2022/09/16 00:47:24;;;;;;;18.67;10.75;;;;;;;14.87;58.65;98002.56;4959961;28;20310;-67
2022/09/16 00:49:51;;;;;;;17.52;10.25;;;;;;;14.60;58.75;97958.50;4959409;28;20050;-67
2022/09/16 00:52:18;;;;;;;15.57;10.23;;;;;;;14.68;59.37;97995.63;4976487;28;20492;-68
2022/09/16 00:54:44;;;;;;;19.10;11.27;;;;;;;14.72;59.38;97991.44;4960246;28;20076;-67
2022/09/16 00:57:11;;;;;;;20.17;10.43;;;;;;;14.78;59.09;97979.84;4959617;28;20145;-68
2022/09/16 00:59:40;;;;;;;22.73;11.30;;;;;;;14.89;59.26;97989.81;4976416;28;20081;-68
2022/09/16 01:02:15;;;;;;;19.98;10.85;;;;;;;15.00;59.00;97995.22;4943161;28;20046;-67
2022/09/16 01:04:50;;;;;;;20.98;10.80;;;;;;;14.90;58.99;97989.56;4959250;28;20133;-69
2022/09/16 01:07:18;;;;;;;20.42;11.40;;;;;;;14.83;59.30;97986.19;4959119;28;20564;-68
2022/09/16 01:09:44;;;;;;;17.80;10.70;;;;;;;14.65;59.24;97980.84;4959682;28;20442;-68
2022/09/16 01:12:10;;;;;;;16.33;10.70;;;;;;;14.59;59.24;97979.06;4961325;28;20078;-68
2022/09/16 01:14:54;;;;;;;21.63;11.63;;;;;;;14.65;59.38;97977.38;4929403;28;20046;-71
2022/09/16 01:17:32;;;;;;;15.43;10.80;;;;;;;15.00;58.72;97991.72;4945268;28;20045;-69
2022/09/16 01:20:34;;;;;;;19.05;10.10;;;;;;;15.04;58.59;97998.22;4957427;28;20457;-70
2022/09/16 01:23:18;;;;;;;14.75;10.60;;;;;;;15.03;58.79;97992.09;4956916;28;20121;-68
2022/09/16 01:26:09;;;;;;;17.75;10.23;;;;;;;15.00;58.71;97976.50;4973087;28;20137;-68
2022/09/16 01:29:05;;;;;;;21.05;10.90;;;;;;;14.99;58.67;97984.75;4941648;28;20059;-68
2022/09/16 01:31:37;;;;;;;21.85;11.20;;;;;;;14.78;59.26;97977.19;4941165;28;20070;-68
2022/09/16 01:34:35;;;;;;;18.15;10.95;;;;;;;14.84;59.01;97986.97;4974211;28;20046;-68
2022/09/16 01:37:33;;;;;;;21.77;10.45;;;;;;;14.91;59.00;97987.72;4942461;28;20145;-68
2022/09/16 01:40:06;;;;;;;16.05;10.35;;;;;;;14.83;59.18;97991.53;4992697;28;20035;-68
2022/09/16 01:42:50;;;;;;;16.35;10.52;;;;;;;14.73;59.60;97982.41;4943598;28;20178;-68
2022/09/16 01:45:40;;;;;;;15.63;10.40;;;;;;;14.98;58.95;97991.13;4958716;28;20054;-70
2022/09/16 01:48:26;;;;;;;15.38;10.80;;;;;;;14.94;59.04;97984.59;4959183;28;20221;-68
2022/09/16 01:50:57;;;;;;;16.00;9.95;;;;;;;14.97;58.75;97989.50;4943412;28;20499;-70
2022/09/16 01:53:58;;;;;;;16.83;10.35;;;;;;;14.94;59.04;97980.09;4942987;28;20042;-67
2022/09/16 01:56:43;;;;;;;16.58;10.45;;;;;;;15.07;58.72;97971.88;4935827;28;20127;-68
2022/09/16 01:59:12;;;;;;;17.67;10.32;;;;;;;15.05;59.29;97973.16;4927088;28;20046;-71
2022/09/16 02:01:47;;;;;;;16.83;9.60;;;;;;;15.26;58.26;97975.31;4927386;28;20049;-70
2022/09/16 02:04:15;;;;;;;18.52;10.35;;;;;;;15.13;58.69;97967.47;4943063;28;20116;-67
2022/09/16 02:06:42;;;;;;;19.23;9.35;;;;;;;15.24;58.40;97974.72;4974930;28;20507;-69
2022/09/16 02:09:14;;;;;;;19.35;9.65;;;;;;;15.18;58.22;97943.53;4943305;28;20046;-68
2022/09/16 02:11:40;;;;;;;16.50;9.90;;;;;;;15.20;57.86;97961.00;4974992;28;20471;-70
2022/09/16 02:14:11;;;;;;;14.23;9.55;;;;;;;15.35;57.70;97957.06;4959198;28;20550;-68
2022/09/16 02:16:44;;;;;;;15.07;9.20;;;;;;;15.44;57.49;97974.47;4965581;28;20053;-67
2022/09/16 02:19:20;;;;;;;15.73;9.35;;;;;;;15.37;57.97;97969.19;4962103;28;20069;-69
2022/09/16 02:21:46;;;;;;;17.00;9.02;;;;;;;15.24;57.90;97972.03;4962627;28;20066;-67
2022/09/16 02:24:17;;;;;;;14.90;8.88;;;;;;;15.36;57.87;97975.56;4962356;28;20387;-68
2022/09/16 02:26:52;;;;;;;14.55;8.93;;;;;;;15.33;58.12;97964.53;4946012;28;20062;-68
2022/09/16 02:29:26;;;;;;;12.38;9.25;;;;;;;15.24;58.58;97967.50;4995261;28;20522;-67
2022/09/16 02:31:54;;;;;;;12.93;9.00;;;;;;;15.19;58.64;97966.56;4946271;28;20050;-68
2022/09/16 02:34:30;;;;;;;17.60;9.07;;;;;;;15.22;58.67;97958.91;4961891;28;20050;-67
2022/09/16 02:36:58;;;;;;;13.82;9.45;;;;;;;15.14;58.79;97963.75;4930447;28;20046;-67
2022/09/16 02:39:28;;;;;;;13.52;8.98;;;;;;;15.25;58.50;97965.66;4962165;28;20054;-67
2022/09/16 02:41:55;;;;;;;12.85;9.32;;;;;;;15.15;58.42;97968.06;4961884;28;20042;-68
2022/09/16 02:44:24;;;;;;;16.52;10.05;;;;;;;15.17;58.66;97952.59;4962068;28;20050;-67
2022/09/16 02:47:00;;;;;;;16.38;10.07;;;;;;;15.11;58.97;97961.53;4994627;28;20046;-67
2022/09/16 02:49:46;;;;;;;16.02;9.73;;;;;;;14.57;59.66;97924.22;4946143;28;20046;-67
2022/09/16 02:52:42;;;;;;;15.23;9.43;;;;;;;15.18;58.80;97952.38;4945413;28;20057;-71
2022/09/16 02:55:19;;;;;;;14.20;9.75;;;;;;;14.95;59.06;97960.31;4962091;28;20411;-67
2022/09/16 02:57:45;;;;;;;15.07;9.75;;;;;;;14.92;58.93;97938.56;4961886;28;20058;-67
2022/09/16 03:00:11;;;;;;;13.45;9.63;;;;;;;15.00;58.93;97954.28;4930138;28;20058;-68
2022/09/16 03:02:37;;;;;;;16.52;10.30;;;;;;;14.86;59.13;97950.97;4945786;28;20374;-67
2022/09/16 03:05:03;;;;;;;16.23;9.82;;;;;;;14.87;59.31;97954.44;4945825;28;20053;-67
2022/09/16 03:07:29;;;;;;;14.18;9.80;;;;;;;14.90;58.87;97948.66;4978259;28;20062;-67
2022/09/16 03:09:56;;;;;;;17.10;10.75;;;;;;;14.91;59.13;97953.78;4946426;28;20046;-67
2022/09/16 03:12:41;;;;;;;16.92;10.55;;;;;;;15.24;58.61;97956.81;4962057;28;20042;-67
2022/09/16 03:15:16;;;;;;;15.43;10.52;;;;;;;15.20;58.34;97952.97;4945348;28;20065;-67
2022/09/16 03:18:04;;;;;;;15.00;10.23;;;;;;;15.27;58.64;97960.88;4977588;28;20038;-71
2022/09/16 03:20:39;;;;;;;14.85;10.00;;;;;;;15.35;58.64;97959.75;4961564;28;20046;-67
2022/09/16 03:23:44;;;;;;;17.13;10.20;;;;;;;15.26;58.56;97951.25;4977287;28;20181;-68
2022/09/16 03:26:26;;;;;;;16.38;10.00;;;;;;;15.17;58.27;97934.72;4915314;28;20089;-67
2022/09/16 03:29:01;;;;;;;18.67;10.63;;;;;;;15.31;58.22;97959.41;4945414;28;20350;-67
2022/09/16 03:31:28;;;;;;;17.02;10.10;;;;;;;14.89;58.35;97925.66;4979444;28;20058;-67
2022/09/16 03:34:05;;;;;;;17.85;10.20;;;;;;;15.46;57.88;97951.78;4960761;28;20050;-68
2022/09/16 03:36:38;;;;;;;14.32;9.85;;;;;;;15.43;58.03;97954.09;4961110;28;20057;-67
2022/09/16 03:39:04;;;;;;;15.50;10.40;;;;;;;15.09;58.07;97923.50;4960775;28;20038;-67
2022/09/16 03:41:31;;;;;;;17.42;10.00;;;;;;;15.36;58.04;97946.13;4976700;28;20038;-67
2022/09/16 03:43:58;;;;;;;14.38;9.52;;;;;;;15.38;57.93;97951.28;4994901;28;20081;-68
2022/09/16 03:46:27;;;;;;;14.13;10.05;;;;;;;15.27;58.15;97948.34;4977520;28;20046;-67
2022/09/16 03:48:56;;;;;;;14.23;10.48;;;;;;;15.32;58.63;97947.66;4977221;28;20396;-67
2022/09/16 03:51:23;;;;;;;17.02;10.32;;;;;;;15.10;58.56;97944.69;4961246;28;20134;-67
2022/09/16 03:53:52;;;;;;;15.95;10.00;;;;;;;15.27;58.85;97942.97;4929229;28;20043;-67
2022/09/16 03:56:18;;;;;;;14.80;9.88;;;;;;;15.37;58.18;97955.81;4976894;28;20061;-67
2022/09/16 03:58:46;;;;;;;16.83;9.85;;;;;;;15.42;58.04;97953.31;4929509;28;20050;-67
2022/09/16 04:01:13;;;;;;;14.00;9.45;;;;;;;15.31;57.77;97956.72;4929515;28;20042;-67
2022/09/16 04:03:39;;;;;;;15.15;10.15;;;;;;;15.55;57.81;97945.06;4960329;28;20061;-66
2022/09/16 04:06:05;;;;;;;16.65;10.18;;;;;;;15.41;58.00;97950.84;4921143;28;20559;-66
2022/09/16 04:08:32;;;;;;;15.68;10.02;;;;;;;15.61;57.58;97946.81;4908841;28;20050;-67
2022/09/16 04:10:59;;;;;;;19.35;10.07;;;;;;;15.73;57.46;97944.94;4940960;28;20141;-67
2022/09/16 04:13:28;;;;;;;15.57;9.70;;;;;;;15.75;57.24;97958.94;4941182;28;20392;-66
2022/09/16 04:15:54;;;;;;;19.40;9.73;;;;;;;15.66;57.36;97957.63;4941693;28;20371;-67
2022/09/16 04:18:19;;;;;;;18.50;10.00;;;;;;;15.75;57.05;97953.56;4925141;28;20038;-67
2022/09/16 04:20:45;;;;;;;14.73;9.88;;;;;;;15.88;56.47;97948.00;4929980;28;20042;-67
2022/09/16 04:23:11;;;;;;;16.65;9.50;;;;;;;16.04;56.64;97947.28;4940148;28;20166;-67
2022/09/16 04:25:37;;;;;;;15.40;9.18;;;;;;;16.07;56.47;97954.84;4938581;28;20145;-66
2022/09/16 04:28:03;;;;;;;13.27;9.38;;;;;;;16.16;56.31;97960.69;4936414;29;20578;-67
2022/09/16 04:30:31;;;;;;;15.85;9.68;;;;;;;16.25;56.43;97954.72;4905347;29;20469;-67
2022/09/16 04:32:57;;;;;;;16.67;9.63;;;;;;;16.03;56.60;97956.38;4936442;29;20063;-68
2022/09/16 04:35:24;;;;;;;16.85;10.60;;;;;;;16.06;56.67;97955.91;4937261;29;20501;-69
2022/09/16 04:37:50;;;;;;;15.57;9.77;;;;;;;16.04;56.93;97947.28;4952761;28;20042;-70
2022/09/16 04:40:18;;;;;;;17.20;10.70;;;;;;;16.16;56.50;97942.75;4952473;28;20047;-78
2022/09/16 04:42:49;;;;;;;15.38;9.90;;;;;;;16.40;56.47;97949.72;4967895;28;20051;-69
2022/09/16 04:45:17;;;;;;;15.50;10.32;;;;;;;16.13;56.56;97951.25;4949850;28;20141;-70
2022/09/16 04:47:43;;;;;;;17.88;9.93;;;;;;;16.31;56.34;97948.41;4941564;28;20046;-69
2022/09/16 04:50:10;;;;;;;18.25;10.27;;;;;;;16.22;56.87;97939.13;4939668;28;20087;-71
2022/09/16 04:52:35;;;;;;;14.50;10.25;;;;;;;16.26;56.30;97940.31;4955657;28;20116;-67
2022/09/16 04:55:01;;;;;;;20.58;11.10;;;;;;;16.36;56.27;97937.03;4939108;28;20051;-68
2022/09/16 04:57:31;;;;;;;19.10;10.70;;;;;;;16.64;55.86;97950.50;4923958;28;20183;-69
2022/09/16 04:59:57;;;;;;;16.25;11.02;;;;;;;16.67;55.78;97948.16;4955209;28;20070;-67
2022/09/16 05:02:24;;;;;;;16.55;10.57;;;;;;;16.80;55.65;97944.41;4972165;28;20464;-66
2022/09/16 05:04:52;;;;;;;20.77;11.43;;;;;;;16.64;55.58;97947.81;4923144;28;20047;-67
2022/09/16 05:07:18;;;;;;;18.83;11.13;;;;;;;16.64;55.61;97951.31;4970938;28;20051;-67
2022/09/16 05:09:46;;;;;;;18.23;10.52;;;;;;;16.76;55.81;97952.09;4954985;28;20097;-67
2022/09/16 05:12:12;;;;;;;25.10;11.10;;;;;;;16.72;55.43;97940.22;4919380;29;20502;-68
2022/09/16 05:14:38;;;;;;;18.02;10.27;;;;;;;16.79;55.67;97940.88;4935347;29;20047;-70
2022/09/16 05:17:04;;;;;;;17.80;10.93;;;;;;;16.96;55.24;97934.78;4934261;28;20062;-71
2022/09/16 05:19:30;;;;;;;20.55;10.43;;;;;;;16.75;55.43;97945.09;4932393;29;20055;-71
2022/09/16 05:21:55;;;;;;;16.20;10.93;;;;;;;16.71;55.87;97937.78;4918311;29;20035;-71
2022/09/16 05:24:21;;;;;;;19.98;12.15;;;;;;;16.84;55.86;97932.97;4934092;29;20474;-72
2022/09/16 05:26:47;;;;;;;21.38;11.77;;;;;;;16.87;55.62;97920.94;4918198;28;20069;-78
2022/09/16 05:29:15;;;;;;;22.92;11.63;;;;;;;17.04;55.38;97926.31;4950568;28;20047;-69
2022/09/16 05:31:42;;;;;;;17.73;11.55;;;;;;;16.85;55.85;97928.41;4936051;28;20043;-72
2022/09/16 05:34:20;;;;;;;17.02;11.35;;;;;;;16.99;55.97;97923.56;4936247;29;20047;-70
2022/09/16 05:36:46;;;;;;;20.08;11.55;;;;;;;16.79;56.16;97913.25;4952743;28;20047;-73
2022/09/16 05:39:14;;;;;;;22.73;11.77;;;;;;;16.68;56.84;97924.84;4936742;29;20053;-70
2022/09/16 05:41:40;;;;;;;19.58;10.63;;;;;;;16.81;56.32;97911.97;4936969;29;20074;-71
2022/09/16 05:44:06;;;;;;;16.83;10.77;;;;;;;17.12;55.77;97915.22;4920244;29;20133;-70
2022/09/16 05:46:32;;;;;;;16.70;10.98;;;;;;;17.11;55.77;97919.78;4919345;29;20047;-72
2022/09/16 05:48:57;;;;;;;18.83;10.63;;;;;;;16.99;55.80;97894.06;4934519;29;20450;-71
2022/09/16 05:51:24;;;;;;;23.63;11.45;;;;;;;17.16;55.65;97913.69;4922737;29;20051;-71
2022/09/16 05:53:52;;;;;;;18.42;11.57;;;;;;;17.19;55.84;97910.53;4922999;29;20114;-71
2022/09/16 05:56:20;;;;;;;22.90;11.07;;;;;;;17.32;55.54;97899.47;4958548;28;20112;-76
2022/09/16 05:58:46;;;;;;;19.98;10.55;;;;;;;17.45;55.34;97908.03;4964340;28;20054;-72
2022/09/16 06:01:15;;;;;;;23.65;10.63;;;;;;;17.64;54.90;97922.88;4929824;28;20194;-71
2022/09/16 06:03:42;;;;;;;18.90;10.60;;;;;;;17.58;55.03;97912.28;4967402;28;20031;-71
2022/09/16 06:06:11;;;;;;;20.15;10.77;;;;;;;17.78;55.14;97923.34;4947084;28;20423;-70
2022/09/16 06:08:38;;;;;;;18.52;11.23;;;;;;;17.61;55.57;97909.09;4931669;28;20086;-69
2022/09/16 06:11:05;;;;;;;19.67;11.05;;;;;;;17.44;55.35;97879.59;4933821;28;20038;-70
2022/09/16 06:13:32;;;;;;;17.58;11.23;;;;;;;17.69;54.93;97906.03;4946912;28;20039;-72
2022/09/16 06:15:58;;;;;;;22.42;11.35;;;;;;;17.96;54.73;97904.28;4941568;28;20043;-69
2022/09/16 06:18:25;;;;;;;18.45;10.73;;;;;;;18.06;54.48;97904.44;4948878;28;20126;-70
2022/09/16 06:20:51;;;;;;;17.27;10.77;;;;;;;17.90;54.58;97899.88;4948305;28;20141;-71
2022/09/16 06:23:17;;;;;;;21.08;11.55;;;;;;;18.14;54.33;97896.75;4937616;28;20079;-73
2022/09/16 06:25:43;;;;;;;23.13;11.48;;;;;;;18.03;54.63;97904.94;4968284;28;20043;-71
2022/09/16 06:28:10;;;;;;;20.50;10.95;;;;;;;18.04;54.74;97906.53;4952424;28;20046;-70
2022/09/16 06:30:39;;;;;;;19.55;11.48;;;;;;;18.38;54.36;97913.50;4921068;28;20046;-70
2022/09/16 06:33:06;;;;;;;17.67;10.65;;;;;;;18.28;54.13;97905.28;4936747;28;20054;-70
2022/09/16 06:35:34;;;;;;;22.23;11.13;;;;;;;18.36;53.85;97886.84;4949720;28;20490;-70
2022/09/16 06:38:00;;;;;;;20.15;11.48;;;;;;;18.40;53.99;97895.25;4986124;28;20057;-73
2022/09/16 06:40:26;;;;;;;19.88;11.10;;;;;;;18.27;54.38;97895.56;4951646;28;20069;-72
2022/09/16 06:42:53;;;;;;;19.05;11.05;;;;;;;18.31;54.11;97902.09;4920835;28;20049;-72
2022/09/16 06:45:20;;;;;;;21.55;10.75;;;;;;;18.59;53.44;97896.53;4966483;28;20044;-73
2022/09/16 06:47:46;;;;;;;22.67;10.82;;;;;;;18.71;53.00;97901.81;4966850;28;20073;-72
2022/09/16 06:50:11;;;;;;;16.60;10.88;;;;;;;18.69;52.78;97894.00;4919701;28;20543;-72
2022/09/16 06:52:37;;;;;;;20.55;10.48;;;;;;;19.02;52.47;97899.19;4933852;28;20328;-74
2022/09/16 06:55:04;;;;;;;20.10;10.50;;;;;;;19.05;52.23;97863.69;4941971;28;20057;-73
2022/09/16 06:57:30;;;;;;;18.10;10.13;;;;;;;19.38;51.04;97889.59;4975991;28;20400;-72
2022/09/16 06:59:56;;;;;;;17.77;10.57;;;;;;;19.56;50.99;97889.19;4977160;28;20053;-72
2022/09/16 07:02:22;;;;;;;18.65;11.05;;;;;;;19.60;50.79;97890.34;4946524;28;20042;-73
2022/09/16 07:04:48;;;;;;;23.52;10.25;;;;;;;19.85;50.43;97898.59;4935154;28;20035;-75
2022/09/16 07:07:14;;;;;;;22.38;10.30;;;;;;;20.28;49.24;97892.94;4945562;28;20058;-73
2022/09/16 07:09:40;;;;;;;24.05;10.18;;;;;;;20.62;49.08;97883.38;4912847;28;20047;-73
2022/09/16 07:12:07;;;;;;;18.20;9.70;;;;;;;21.45;47.00;97893.03;4943183;28;20039;-73
2022/09/16 07:14:33;;;;;;;18.48;10.00;;;;;;;21.52;46.06;97904.41;4944266;28;20082;-73
2022/09/16 07:16:59;;;;;;;22.85;10.52;;;;;;;21.85;45.32;97903.06;4927251;28;20070;-73
2022/09/16 07:19:26;;;;;;;20.17;10.10;;;;;;;22.47;44.14;97912.41;4935572;28;20061;-73
2022/09/16 07:21:52;;;;;;;20.80;9.15;;;;;;;22.82;43.18;97920.41;4961981;28;20050;-72
2022/09/16 07:24:18;;;;;;;18.27;8.82;;;;;;;23.64;41.87;97911.53;4929963;28;20396;-74
2022/09/16 07:26:45;;;;;;;19.33;9.13;;;;;;;24.32;39.81;97877.81;4929574;28;20065;-73
2022/09/16 07:29:29;;;;;;;20.63;10.48;;;;;;;25.09;37.52;97905.63;4961736;28;20053;-74
2022/09/16 07:31:55;;;;;;;20.90;9.10;;;;;;;25.07;38.16;97880.66;4961109;28;20144;-74
2022/09/16 07:34:21;;;;;;;18.27;8.30;;;;;;;25.90;35.92;97900.59;4960260;28;20050;-73
2022/09/16 07:36:48;;;;;;;22.65;9.93;;;;;;;25.88;36.71;97873.69;4960433;28;20141;-73
2022/09/16 07:39:15;;;;;;;17.05;9.80;;;;;;;26.32;35.48;97884.06;4926483;28;20136;-74
2022/09/16 07:41:43;;;;;;;12.55;9.10;;;;;;;26.86;34.95;97853.31;4959299;28;20104;-73
2022/09/16 07:44:11;;;;;;;17.85;9.13;;;;;;;27.82;32.89;97866.28;4974776;28;20049;-72
2022/09/16 07:46:37;;;;;;;17.92;8.45;;;;;;;29.28;30.70;97847.38;4976093;28;20054;-72
2022/09/16 07:49:05;;;;;;;14.35;8.10;;;;;;;31.76;27.35;97841.56;4959409;28;20061;-73
2022/09/16 07:51:34;;;;;;;23.45;7.47;;;;;;;33.77;24.46;97826.78;4959494;28;20092;-73
2022/09/16 07:54:04;;;;;;;13.93;7.10;;;;;;;35.88;21.75;97796.69;4942875;28;20065;-73
2022/09/16 07:56:33;;;;;;;9.43;7.22;;;;;;;35.65;21.51;97799.41;4943453;28;20116;-74
2022/09/16 07:58:59;;;;;;;11.13;7.13;;;;;;;35.61;21.63;97801.28;4974744;28;20042;-74
2022/09/16 08:01:25;;;;;;;9.65;7.05;;;;;;;36.27;20.55;97800.16;4959197;28;20064;-73
2022/09/16 08:03:51;;;;;;;11.27;7.00;;;;;;;35.97;20.54;97785.41;4926980;28;20050;-73
2022/09/16 08:06:23;;;;;;;17.35;6.90;;;;;;;34.87;21.58;97778.81;4943259;28;20097;-74
2022/09/16 08:08:53;;;;;;;13.13;7.10;;;;;;;33.21;22.85;97789.41;4943782;28;20145;-74
2022/09/16 08:11:19;;;;;;;9.43;6.97;;;;;;;31.89;25.29;97782.03;4942633;28;20101;-75
2022/09/16 08:13:45;;;;;;;9.75;7.20;;;;;;;30.91;26.43;97781.94;4958460;28;20054;-73
2022/09/16 08:16:15;;;;;;;15.25;7.75;;;;;;;30.60;27.11;97773.28;4959049;28;20060;-74
2022/09/16 08:18:42;;;;;;;12.68;7.55;;;;;;;30.41;26.70;97789.34;4944236;28;20046;-73
2022/09/16 08:21:11;;;;;;;10.35;7.40;;;;;;;29.35;28.77;97768.38;4959422;28;20050;-74
2022/09/16 08:23:39;;;;;;;18.38;8.55;;;;;;;28.75;29.36;97764.88;4926876;28;20073;-73
2022/09/16 08:26:09;;;;;;;11.00;7.95;;;;;;;28.53;30.21;97775.91;4975811;28;20444;-72
2022/09/16 08:28:36;;;;;;;13.02;7.93;;;;;;;28.16;30.50;97781.06;4943591;28;20374;-72
2022/09/16 08:31:02;;;;;;;11.05;7.70;;;;;;;27.49;31.97;97769.50;4959179;28;20469;-72
2022/09/16 08:33:29;;;;;;;12.40;7.68;;;;;;;27.29;32.37;97759.13;4926566;28;20550;-73
2022/09/16 08:36:05;;;;;;;13.20;7.40;;;;;;;26.94;32.85;97752.56;4928428;28;20078;-73
2022/09/16 08:38:32;;;;;;;11.27;7.28;;;;;;;26.80;33.65;97764.63;4958818;28;20480;-74
2022/09/16 08:41:04;;;;;;;10.45;7.05;;;;;;;26.57;33.92;97760.22;4926641;28;20040;-73
2022/09/16 08:43:49;;;;;;;10.80;7.55;;;;;;;26.32;34.70;97753.41;4942443;28;20058;-73
2022/09/16 08:46:20;;;;;;;14.43;7.80;;;;;;;25.92;35.29;97763.19;4975336;28;20357;-73
2022/09/16 08:49:06;;;;;;;16.02;7.60;;;;;;;26.16;35.44;97749.38;4942891;28;20049;-72
2022/09/16 08:51:31;;;;;;;20.25;8.30;;;;;;;25.63;36.02;97751.75;4958605;28;20097;-71
2022/09/16 08:54:05;;;;;;;12.25;7.97;;;;;;;25.94;36.06;97747.34;4958483;28;20050;-72
2022/09/16 08:56:36;;;;;;;17.90;8.77;;;;;;;25.82;36.23;97754.38;4942506;28;20105;-73
2022/09/16 08:59:05;;;;;;;10.27;7.45;;;;;;;25.59;35.85;97752.66;4974681;28;20046;-72
2022/09/16 09:01:47;;;;;;;13.73;7.15;;;;;;;25.38;36.53;97756.84;4973825;28;20452;-72
2022/09/16 09:04:13;;;;;;;10.93;6.90;;;;;;;25.14;36.57;97756.16;4958394;28;20535;-73
2022/09/16 09:07:00;;;;;;;9.75;6.90;;;;;;;25.22;37.00;97750.84;4942643;28;20061;-72
2022/09/16 09:09:59;;;;;;;10.30;7.10;;;;;;;24.97;37.46;97755.88;4942645;28;20049;-72
2022/09/16 09:12:44;;;;;;;9.52;6.43;;;;;;;24.59;38.04;97764.00;4973682;28;20443;-72
2022/09/16 09:15:42;;;;;;;11.30;6.35;;;;;;;24.20;38.63;97758.00;4943005;28;20816;-74
2022/09/16 09:18:12;;;;;;;9.95;5.88;;;;;;;23.81;39.45;97776.38;4942252;28;20046;-71
2022/09/16 09:21:13;;;;;;;7.28;5.57;;;;;;;23.59;39.31;97765.19;4943399;28;20045;-67
2022/09/16 09:24:11;;;;;;;9.68;5.85;;;;;;;23.54;39.91;97759.81;4943059;28;20042;-72
2022/09/16 09:26:58;;;;;;;9.07;5.85;;;;;;;23.71;39.90;97753.97;4941908;28;20059;-72
2022/09/16 09:29:44;;;;;;;8.90;5.97;;;;;;;23.26;40.17;97709.97;4975206;28;20389;-73
2022/09/16 09:32:42;;;;;;;9.43;6.43;;;;;;;23.88;39.56;97760.53;4958953;28;20047;-73
2022/09/16 09:35:14;;;;;;;10.98;6.05;;;;;;;24.06;39.49;97751.72;4943101;28;20485;-71
2022/09/16 09:38:01;;;;;;;12.63;6.55;;;;;;;24.40;38.93;97754.25;4976783;28;20477;-71
2022/09/16 09:40:36;;;;;;;10.45;6.18;;;;;;;24.69;37.81;97749.53;4943421;28;20576;-72
2022/09/16 09:43:10;;;;;;;9.35;5.50;;;;;;;24.66;37.85;97760.97;4942643;28;20047;-73
2022/09/16 09:45:42;;;;;;;11.55;5.32;;;;;;;24.77;37.53;97759.72;4958801;28;20035;-73
2022/09/16 09:48:20;;;;;;;8.27;6.13;;;;;;;24.76;37.59;97749.94;4974385;28;20120;-74
2022/09/16 09:50:47;;;;;;;13.70;6.25;;;;;;;24.63;37.73;97750.66;4943563;28;20058;-74
2022/09/16 09:53:40;;;;;;;9.73;5.18;;;;;;;24.47;37.87;97741.13;4958997;28;20078;-74
2022/09/16 09:56:23;;;;;;;7.72;4.97;;;;;;;24.66;37.49;97741.97;4938834;28;20146;-74
2022/09/16 09:59:22;;;;;;;8.55;5.28;;;;;;;24.73;37.55;97734.25;4926589;28;20116;-74
2022/09/16 10:01:53;;;;;;;6.90;5.50;;;;;;;24.74;37.83;97717.66;4958761;28;20043;-74
2022/09/16 10:04:19;;;;;;;11.45;5.40;;;;;;;24.80;37.56;97723.84;4977636;28;20199;-74
2022/09/16 10:06:45;;;;;;;12.70;5.18;;;;;;;24.99;36.95;97715.66;4958553;28;20477;-74
2022/09/16 10:09:13;;;;;;;9.93;5.30;;;;;;;24.87;36.98;97724.25;4942752;28;20054;-75
2022/09/16 10:11:54;;;;;;;8.73;4.75;;;;;;;24.73;37.14;97724.19;4941689;28;20074;-74
2022/09/16 10:14:24;;;;;;;9.57;4.35;;;;;;;24.74;36.47;97736.66;4974980;28;20359;-73
2022/09/16 10:16:51;;;;;;;9.23;4.75;;;;;;;24.45;37.35;97716.16;4958304;28;20078;-75
2022/09/16 10:19:25;;;;;;;13.05;4.82;;;;;;;24.47;37.24;97731.06;4926451;28;20046;-74
2022/09/16 10:21:56;;;;;;;9.20;5.00;;;;;;;24.56;37.44;97717.63;4941981;28;20069;-74
2022/09/16 10:24:29;;;;;;;;;;;;;;;24.64;36.97;97714.28;4926984;28;20045;-74
2022/09/16 10:26:56;;;;;;;7.60;4.35;;;;;;;24.29;36.64;97703.94;4973998;28;19929;-74
2022/09/16 10:29:22;;;;;;;6.72;5.00;;;;;;;24.16;36.49;97704.63;4943542;28;20116;-73
2022/09/16 10:31:48;;;;;;;6.78;4.22;;;;;;;23.75;37.26;97673.69;4925789;28;20039;-72
2022/09/16 10:34:20;;;;;;;10.80;5.15;;;;;;;24.23;36.80;97680.69;4942162;28;20456;-73
2022/09/16 10:37:26;;;;;;;13.60;5.50;;;;;;;24.10;37.20;97693.06;4957110;28;20073;-73
2022/09/16 10:39:54;;;;;;;18.80;11.07;;;;;;;24.16;37.36;97677.50;4959113;28;20082;-74
2022/09/16 10:42:23;;;;;;;14.30;8.02;;;;;;;24.16;37.66;97681.03;4958174;28;20051;-74
2022/09/16 10:44:50;;;;;;;13.75;6.63;;;;;;;24.21;37.65;97683.69;4975244;28;20045;-73
2022/09/16 10:47:21;;;;;;;10.60;5.10;;;;;;;24.05;37.52;97682.28;4941498;28;20057;-72
2022/09/16 10:49:57;;;;;;;;;;;;;;;24.00;37.33;97673.41;4958485;28;20077;-71
2022/09/16 10:52:25;;;;;;;13.10;6.60;;;;;;;23.71;37.82;97675.38;4974071;28;20356;-73
2022/09/16 10:54:52;;;;;;;18.73;9.82;;;;;;;23.91;37.88;97677.84;4942122;28;20086;-74
2022/09/16 10:57:30;;;;;;;10.50;5.85;;;;;;;23.93;36.82;97678.34;4926282;28;20606;-73
2022/09/16 11:00:23;;;;;;;10.77;6.53;;;;;;;23.57;37.26;97675.25;4975166;28;20117;-73
2022/09/16 11:02:55;;;;;;;16.02;7.65;;;;;;;23.62;37.46;97641.88;4958260;28;20039;-73
2022/09/16 11:05:43;;;;;;;11.80;7.05;;;;;;;23.85;37.05;97679.00;4957796;28;20086;-73
2022/09/16 11:08:18;;;;;;;13.98;6.15;;;;;;;23.66;37.65;97675.44;4959845;28;20453;-74
2022/09/16 11:10:51;;;;;;;12.18;5.90;;;;;;;23.45;38.22;97665.94;4941189;28;20121;-75
2022/09/16 11:13:20;;;;;;;15.48;5.68;;;;;;;23.62;38.27;97658.13;4973006;28;20043;-74
2022/09/16 11:15:57;;;;;;;12.48;6.32;;;;;;;23.53;38.77;97655.25;4973079;28;20039;-74
2022/09/16 11:18:44;;;;;;;10.50;6.18;;;;;;;23.47;39.16;97639.31;4974308;28;20050;-72
2022/09/16 11:21:28;;;;;;;11.30;6.25;;;;;;;23.13;40.06;97642.94;4957760;28;20393;-74
2022/09/16 11:24:04;;;;;;;11.02;5.97;;;;;;;23.42;39.89;97650.25;4947603;29;20600;-79
2022/09/16 11:26:44;;;;;;;9.80;5.97;;;;;;;23.42;39.96;97636.69;4953865;28;20063;-72
2022/09/16 11:29:46;;;;;;;10.98;6.55;;;;;;;23.58;39.63;97632.69;4938170;28;20054;-74
2022/09/16 11:32:34;;;;;;;14.63;6.20;;;;;;;23.44;40.11;97646.16;4937805;29;20043;-71
2022/09/16 11:35:26;;;;;;;12.30;5.57;;;;;;;22.97;40.55;97608.97;4922382;29;20051;-72
2022/09/16 11:38:13;;;;;;;8.20;5.13;;;;;;;23.05;40.70;97638.13;4947036;29;20062;-72
2022/09/16 11:40:41;;;;;;;9.27;6.22;;;;;;;22.81;41.51;97636.47;4942752;28;20042;-73
2022/09/16 11:43:26;;;;;;;11.88;6.18;;;;;;;23.10;41.04;97631.84;4953606;28;20053;-74